createdAt,value
2023-09-29T00:02:25.123Z,16.00
2023-09-29T00:05:28.183Z,16.10
2023-09-29T00:08:29.935Z,16.10
2023-09-29T00:11:32.935Z,16.10
2023-09-29T00:14:34.917Z,16.10
2023-09-29T00:17:36.913Z,16.10
2023-09-29T00:20:39.083Z,16.10
2023-09-29T00:23:41.959Z,16.10
2023-09-29T00:26:43.769Z,16.10
2023-09-29T00:29:45.749Z,16.20
2023-09-29T00:32:52.127Z,16.10
2023-09-29T00:35:55.083Z,16.10
2023-09-29T00:38:57.189Z,16.20
2023-09-29T00:41:59.284Z,16.20
2023-09-29T00:45:02.317Z,16.20
2023-09-29T00:48:09.953Z,16.20
2023-09-29T00:51:11.931Z,16.20
2023-09-29T00:54:15.575Z,16.20
2023-09-29T00:57:18.269Z,16.10
2023-09-29T01:00:41.409Z,16.10
2023-09-29T01:03:43.408Z,16.10
2023-09-29T01:06:46.688Z,16.20
2023-09-29T01:09:48.485Z,16.10
2023-09-29T01:12:50.393Z,16.10
2023-09-29T01:15:52.342Z,16.10
2023-09-29T01:18:55.381Z,16.10
2023-09-29T01:21:57.298Z,16.10
2023-09-29T01:25:01.768Z,16.10
2023-09-29T01:28:08.711Z,16.10
2023-09-29T01:31:11.223Z,16.10
2023-09-29T01:34:13.867Z,16.10
2023-09-29T01:37:15.717Z,16.10
2023-09-29T01:40:19.229Z,16.20
2023-09-29T01:43:23.676Z,16.10
2023-09-29T01:46:25.663Z,16.10
2023-09-29T01:49:27.626Z,16.20
2023-09-29T01:52:29.452Z,16.10
2023-09-29T01:55:32.170Z,16.10
2023-09-29T01:58:36.789Z,16.20
2023-09-29T02:01:39.144Z,16.20
2023-09-29T02:04:41.019Z,16.10
2023-09-29T02:07:43.243Z,16.20
2023-09-29T02:10:50.285Z,16.10
2023-09-29T02:13:52.082Z,16.10
2023-09-29T02:16:54.790Z,16.10
2023-09-29T02:19:58.001Z,16.10
2023-09-29T02:23:01.491Z,16.10
2023-09-29T02:26:03.982Z,16.10
2023-09-29T02:29:09.568Z,16.10
2023-09-29T02:32:11.409Z,16.10
2023-09-29T02:35:15.273Z,16.10
2023-09-29T02:38:17.702Z,16.10
2023-09-29T02:41:21.594Z,16.10
2023-09-29T02:44:23.573Z,16.10
2023-09-29T02:47:25.765Z,16.10
2023-09-29T02:50:27.829Z,16.20
2023-09-29T02:53:30.601Z,16.20
2023-09-29T02:56:32.519Z,16.20
2023-09-29T02:59:39.106Z,16.20
2023-09-29T03:02:42.019Z,16.10
2023-09-29T03:05:44.396Z,16.20
2023-09-29T03:08:47.469Z,16.20
2023-09-29T03:11:53.638Z,16.20
2023-09-29T03:14:55.607Z,16.20
2023-09-29T03:18:00.410Z,16.20
2023-09-29T03:21:05.180Z,16.20
2023-09-29T03:24:09.225Z,16.20
2023-09-29T03:27:11.160Z,16.20
2023-09-29T03:30:13.798Z,16.20
2023-09-29T03:33:15.716Z,16.20
2023-09-29T03:36:17.858Z,16.10
2023-09-29T03:39:20.326Z,16.20
2023-09-29T03:42:22.972Z,16.20
2023-09-29T03:45:25.163Z,16.20
2023-09-29T03:48:27.151Z,16.30
2023-09-29T03:51:31.310Z,16.30
2023-09-29T03:54:34.596Z,16.20
2023-09-29T03:57:38.644Z,16.30
2023-09-29T04:00:40.502Z,16.20
2023-09-29T04:03:43.548Z,16.30
2023-09-29T04:06:45.739Z,16.40
2023-09-29T04:09:47.941Z,16.30
2023-09-29T04:12:50.985Z,16.30
2023-09-29T04:15:52.757Z,16.40
2023-09-29T04:18:56.758Z,16.40
2023-09-29T04:21:58.967Z,16.40
2023-09-29T04:25:01.143Z,16.40
2023-09-29T04:28:03.013Z,16.40
2023-09-29T04:31:05.902Z,16.40
2023-09-29T04:34:07.746Z,16.40
2023-09-29T04:37:09.649Z,16.30
2023-09-29T04:40:12.889Z,16.40
2023-09-29T04:43:14.776Z,16.40
2023-09-29T04:46:17.497Z,16.40
2023-09-29T04:49:19.722Z,16.30
2023-09-29T04:52:22.359Z,16.30
2023-09-29T04:55:24.274Z,16.30
2023-09-29T04:58:26.067Z,16.30
2023-09-29T05:01:28.975Z,16.30
2023-09-29T05:04:31.147Z,16.20
2023-09-29T05:07:33.276Z,16.10
2023-09-29T05:10:35.141Z,16.20
2023-09-29T05:13:36.989Z,16.10
2023-09-29T05:16:38.844Z,16.20
2023-09-29T05:19:40.939Z,16.20
2023-09-29T05:22:43.105Z,16.20
2023-09-29T05:25:47.642Z,16.20
2023-09-29T05:28:52.849Z,16.20
2023-09-29T05:31:56.003Z,16.20
2023-09-29T05:34:57.842Z,16.20
2023-09-29T05:37:59.916Z,16.20
2023-09-29T05:41:01.743Z,16.20
2023-09-29T05:44:05.029Z,16.40
2023-09-29T05:47:06.882Z,16.50
2023-09-29T05:50:18.526Z,16.60
2023-09-29T05:53:21.840Z,16.60
2023-09-29T05:56:23.699Z,16.60
2023-09-29T05:59:25.579Z,16.60
2023-09-29T06:02:27.785Z,16.70
2023-09-29T06:05:30.650Z,16.70
2023-09-29T06:08:38.923Z,16.70
2023-09-29T06:11:54.353Z,16.70
2023-09-29T06:14:56.240Z,16.70
2023-09-29T06:17:58.495Z,16.70
2023-09-29T06:21:01.692Z,16.80
2023-09-29T06:24:03.842Z,16.70
2023-09-29T06:27:05.826Z,16.80
2023-09-29T06:30:08.150Z,16.80
2023-09-29T06:33:10.385Z,16.80
2023-09-29T06:36:12.351Z,16.80
2023-09-29T06:39:15.556Z,16.80
2023-09-29T06:42:17.482Z,16.90
2023-09-29T06:45:19.367Z,16.90
2023-09-29T06:48:21.710Z,17.00
2023-09-29T06:51:23.728Z,17.00
2023-09-29T06:54:25.898Z,17.10
2023-09-29T06:57:28.292Z,17.20
2023-09-29T07:00:31.305Z,17.20
2023-09-29T07:03:33.463Z,17.40
2023-09-29T07:06:35.373Z,17.40
2023-09-29T07:09:39.542Z,17.40
2023-09-29T07:12:41.746Z,17.40
2023-09-29T07:15:43.869Z,17.40
2023-09-29T07:18:45.785Z,17.50
2023-09-29T07:21:47.904Z,17.60
2023-09-29T07:24:51.705Z,17.80
2023-09-29T07:27:53.475Z,17.90
2023-09-29T07:30:55.398Z,18.00
2023-09-29T07:33:58.025Z,18.00
2023-09-29T07:36:59.945Z,18.10
2023-09-29T07:40:02.070Z,18.20
2023-09-29T07:43:05.541Z,18.20
2023-09-29T07:46:07.359Z,18.20
2023-09-29T07:49:11.349Z,18.30
2023-09-29T07:52:13.196Z,18.40
2023-09-29T07:55:15.321Z,18.40
2023-09-29T07:58:17.115Z,18.30
2023-09-29T08:01:19.240Z,18.50
2023-09-29T08:04:21.422Z,18.80
2023-09-29T08:07:24.536Z,19.10
2023-09-29T08:10:26.670Z,19.40
2023-09-29T08:13:28.603Z,19.60
2023-09-29T08:16:30.766Z,19.60
2023-09-29T08:19:33.606Z,19.60
2023-09-29T08:22:41.292Z,19.50
2023-09-29T08:25:45.007Z,19.60
2023-09-29T08:28:47.191Z,19.50
2023-09-29T08:31:50.400Z,19.60
2023-09-29T08:34:52.367Z,19.60
2023-09-29T08:37:54.372Z,19.60
2023-09-29T08:40:57.048Z,19.60
2023-09-29T08:44:07.647Z,19.70
2023-09-29T08:47:12.804Z,19.70
2023-09-29T08:50:15.718Z,19.70
2023-09-29T08:53:21.351Z,19.70
2023-09-29T08:56:23.187Z,19.60
2023-09-29T08:59:26.793Z,19.60
2023-09-29T09:02:30.845Z,19.70
2023-09-29T09:05:32.608Z,19.60
2023-09-29T09:08:34.807Z,19.70
2023-09-29T09:11:44.006Z,19.60
2023-09-29T09:14:46.495Z,19.90
2023-09-29T09:17:48.797Z,20.10
2023-09-29T09:20:54.531Z,20.20
2023-09-29T09:23:56.862Z,20.10
2023-09-29T09:27:03.934Z,20.20
2023-09-29T09:30:07.491Z,20.10
2023-09-29T09:33:19.374Z,20.10
2023-09-29T09:36:21.355Z,20.40
2023-09-29T09:39:24.010Z,20.70
2023-09-29T09:42:27.650Z,20.70
2023-09-29T09:45:41.430Z,20.80
2023-09-29T09:48:51.048Z,20.90
2023-09-29T09:51:54.713Z,21.10
2023-09-29T09:54:59.473Z,21.20
2023-09-29T09:58:11.553Z,21.50
2023-09-29T10:01:13.549Z,22.30
2023-09-29T10:04:16.226Z,22.20
2023-09-29T10:07:18.390Z,21.80
2023-09-29T10:10:36.315Z,21.50
2023-09-29T10:13:39.590Z,21.40
2023-09-29T10:16:42.112Z,21.40
2023-09-29T10:19:46.164Z,21.40
2023-09-29T10:22:55.900Z,21.50
2023-09-29T10:26:03.932Z,21.60
2023-09-29T10:29:10.382Z,21.80
2023-09-29T10:32:16.344Z,21.70
2023-09-29T10:35:23.733Z,21.50
2023-09-29T10:38:30.934Z,21.30
2023-09-29T10:41:36.714Z,21.10
2023-09-29T10:44:53.550Z,21.10
2023-09-29T10:48:07.502Z,21.20
2023-09-29T10:51:09.561Z,21.30
2023-09-29T10:54:11.485Z,21.40
2023-09-29T10:57:20.089Z,21.40
2023-09-29T11:00:24.104Z,21.40
2023-09-29T11:03:28.833Z,21.40
2023-09-29T11:06:31.172Z,21.50
2023-09-29T11:09:33.587Z,21.60
2023-09-29T11:12:40.917Z,21.80
2023-09-29T11:15:42.782Z,21.90
2023-09-29T11:18:48.038Z,22.00
2023-09-29T11:21:51.307Z,22.00
2023-09-29T11:24:55.360Z,22.10
2023-09-29T11:27:58.506Z,22.20
2023-09-29T11:31:01.023Z,22.30
2023-09-29T11:34:03.298Z,22.50
2023-09-29T11:37:06.069Z,22.50
2023-09-29T11:40:13.750Z,22.30
2023-09-29T11:43:16.403Z,22.50
2023-09-29T11:46:19.357Z,22.50
2023-09-29T11:49:21.253Z,22.40
2023-09-29T11:52:26.006Z,22.40
2023-09-29T11:55:28.973Z,22.40
2023-09-29T11:58:30.913Z,22.50
2023-09-29T12:01:32.766Z,22.40
2023-09-29T12:04:34.624Z,22.40
2023-09-29T12:07:37.057Z,22.20
2023-09-29T12:10:39.210Z,22.20
2023-09-29T12:13:41.318Z,22.20
2023-09-29T12:16:44.997Z,22.10
2023-09-29T12:19:48.261Z,22.00
2023-09-29T12:22:52.081Z,22.10
2023-09-29T12:25:53.916Z,22.40
2023-09-29T12:28:55.700Z,22.50
2023-09-29T12:31:59.803Z,22.50
2023-09-29T12:35:02.614Z,22.50
2023-09-29T12:38:04.601Z,22.50
2023-09-29T12:41:06.491Z,22.40
2023-09-29T12:44:09.454Z,22.40
2023-09-29T12:47:11.709Z,22.20
2023-09-29T12:50:14.198Z,22.10
2023-09-29T12:53:16.518Z,22.00
2023-09-29T12:56:18.485Z,22.00
2023-09-29T12:59:24.253Z,22.00
2023-09-29T13:02:26.302Z,22.20
2023-09-29T13:05:28.265Z,22.10
2023-09-29T13:08:31.525Z,22.20
2023-09-29T13:11:33.379Z,22.30
2023-09-29T13:14:36.050Z,22.30
2023-09-29T13:17:38.312Z,22.40
2023-09-29T13:20:42.420Z,22.50
2023-09-29T13:23:44.715Z,22.30
2023-09-29T13:26:46.696Z,22.30
2023-09-29T13:29:51.860Z,22.30
2023-09-29T13:32:53.918Z,22.20
2023-09-29T13:35:55.979Z,22.10
2023-09-29T13:38:58.266Z,22.20
2023-09-29T13:42:00.318Z,22.10
2023-09-29T13:45:02.290Z,22.10
2023-09-29T13:48:04.736Z,22.10
2023-09-29T13:51:08.381Z,22.10
2023-09-29T13:54:10.295Z,22.20
2023-09-29T13:57:12.117Z,22.00
2023-09-29T14:00:19.279Z,21.90
2023-09-29T14:03:21.199Z,22.00
2023-09-29T14:06:23.129Z,22.00
2023-09-29T14:09:25.072Z,22.10
2023-09-29T14:12:27.400Z,22.10
2023-09-29T14:15:30.803Z,22.10
2023-09-29T14:18:33.125Z,22.10
2023-09-29T14:21:35.224Z,22.00
2023-09-29T14:24:37.482Z,21.80
2023-09-29T14:27:39.335Z,21.70
2023-09-29T14:30:42.198Z,21.60
2023-09-29T14:33:44.590Z,21.50
2023-09-29T14:36:46.973Z,21.20
2023-09-29T14:39:48.831Z,20.60
2023-09-29T14:42:50.709Z,20.20
2023-09-29T14:45:53.411Z,19.80
2023-09-29T14:48:55.418Z,19.60
2023-09-29T14:51:57.313Z,19.50
2023-09-29T14:55:06.997Z,19.40
2023-09-29T14:58:09.380Z,19.40
2023-09-29T15:01:12.456Z,19.30
2023-09-29T15:04:14.769Z,19.30
2023-09-29T15:07:16.942Z,19.20
2023-09-29T15:10:18.891Z,19.20
2023-09-29T15:13:20.740Z,19.10
2023-09-29T15:16:24.786Z,19.20
2023-09-29T15:19:26.712Z,19.10
2023-09-29T15:22:28.547Z,19.00
2023-09-29T15:25:30.336Z,19.00
2023-09-29T15:28:32.175Z,19.00
2023-09-29T15:31:34.040Z,19.00
2023-09-29T15:34:36.075Z,18.90
2023-09-29T15:37:39.253Z,18.90
2023-09-29T15:40:41.041Z,18.90
2023-09-29T15:43:42.883Z,18.80
2023-09-29T15:46:45.784Z,18.70
2023-09-29T15:49:48.410Z,18.50
2023-09-29T15:52:50.911Z,18.40
2023-09-29T15:55:53.116Z,18.20
2023-09-29T15:58:55.308Z,18.10
2023-09-29T16:01:57.781Z,17.90
2023-09-29T16:05:00.281Z,17.70
2023-09-29T16:08:02.476Z,17.70
2023-09-29T16:11:04.950Z,17.70
2023-09-29T16:14:07.094Z,17.60
2023-09-29T16:17:09.412Z,17.60
2023-09-29T16:20:12.310Z,17.50
2023-09-29T16:23:14.332Z,17.50
2023-09-29T16:26:18.132Z,17.40
2023-09-29T16:29:20.520Z,17.40
2023-09-29T16:32:31.821Z,17.40
2023-09-29T16:35:37.927Z,17.40
2023-09-29T16:38:40.015Z,17.30
2023-09-29T16:41:42.623Z,17.40
2023-09-29T16:44:44.489Z,17.40
2023-09-29T16:47:46.384Z,17.40
2023-09-29T16:50:48.405Z,17.30
2023-09-29T16:53:50.585Z,17.40
2023-09-29T16:56:52.793Z,17.30
2023-09-29T16:59:54.820Z,17.30
2023-09-29T17:02:57.228Z,17.20
2023-09-29T17:06:04.245Z,17.30
2023-09-29T17:09:07.683Z,17.30
2023-09-29T17:12:11.066Z,17.30
2023-09-29T17:15:13.740Z,17.30
2023-09-29T17:18:17.105Z,17.30
2023-09-29T17:21:19.210Z,17.20
2023-09-29T17:24:21.099Z,17.10
2023-09-29T17:27:23.304Z,17.10
2023-09-29T17:30:25.131Z,17.00
2023-09-29T17:33:27.881Z,17.00
2023-09-29T17:36:30.262Z,17.00
2023-09-29T17:39:32.521Z,16.90
2023-09-29T17:42:34.469Z,14.10
2023-09-29T17:45:40.415Z,16.80
2023-09-29T17:48:44.633Z,16.80
2023-09-29T17:51:46.589Z,16.70
2023-09-29T17:54:48.539Z,16.70
2023-09-29T17:57:50.417Z,16.70
2023-09-29T18:00:52.308Z,16.70
2023-09-29T18:03:54.189Z,16.70
2023-09-29T18:06:58.430Z,16.60
2023-09-29T18:10:00.447Z,13.70
2023-09-29T18:13:02.534Z,16.40
2023-09-29T18:16:06.820Z,16.30
2023-09-29T18:19:08.755Z,16.40
2023-09-29T18:22:10.731Z,16.40
2023-09-29T18:25:12.862Z,16.30
2023-09-29T18:28:15.007Z,16.40
2023-09-29T18:31:17.371Z,16.40
2023-09-29T18:34:19.293Z,16.30
2023-09-29T18:37:22.420Z,16.30
2023-09-29T18:40:25.539Z,16.20
2023-09-29T18:43:27.506Z,16.10
2023-09-29T18:46:29.544Z,16.10
2023-09-29T18:49:34.958Z,16.10
2023-09-29T18:52:37.169Z,16.10
2023-09-29T18:55:42.040Z,16.10
2023-09-29T18:58:43.879Z,16.10
2023-09-29T19:01:45.746Z,16.10
2023-09-29T19:04:50.410Z,16.00
2023-09-29T19:07:52.583Z,16.00
2023-09-29T19:10:54.801Z,15.90
2023-09-29T19:13:56.631Z,15.90
2023-09-29T19:16:58.445Z,15.90
2023-09-29T19:20:00.332Z,15.80
2023-09-29T19:23:02.342Z,15.80
2023-09-29T19:26:04.202Z,15.80
2023-09-29T19:29:06.051Z,15.80
2023-09-29T19:32:07.934Z,15.60
2023-09-29T19:35:10.003Z,15.50
2023-09-29T19:38:13.494Z,15.60
2023-09-29T19:41:15.677Z,15.50
2023-09-29T19:44:17.784Z,15.40
2023-09-29T19:47:19.962Z,15.50
2023-09-29T19:50:24.226Z,15.50
2023-09-29T19:53:26.081Z,15.50
2023-09-29T19:56:34.459Z,15.40
2023-09-29T19:59:36.705Z,15.40
2023-09-29T20:02:38.949Z,16.50
2023-09-29T20:05:45.742Z,15.30
2023-09-29T20:08:50.883Z,15.20
2023-09-29T20:11:54.190Z,15.20
2023-09-29T20:14:56.114Z,15.20
2023-09-29T20:17:58.385Z,15.10
2023-09-29T20:21:04.073Z,15.10
2023-09-29T20:24:06.527Z,15.10
2023-09-29T20:27:08.427Z,15.00
2023-09-29T20:30:10.774Z,15.00
2023-09-29T20:33:13.025Z,14.90
2023-09-29T20:36:15.215Z,14.90
2023-09-29T20:39:17.660Z,14.70
2023-09-29T20:42:19.836Z,14.80
2023-09-29T20:45:22.616Z,14.80
2023-09-29T20:48:25.153Z,14.70
2023-09-29T20:51:27.348Z,14.80
2023-09-29T20:54:29.778Z,14.90
2023-09-29T20:57:31.951Z,14.80
2023-09-29T21:00:34.498Z,14.80
2023-09-29T21:03:37.274Z,14.80
2023-09-29T21:06:39.337Z,14.80
2023-09-29T21:09:41.285Z,14.70
2023-09-29T21:12:43.102Z,14.60
2023-09-29T21:15:45.010Z,14.60
2023-09-29T21:18:47.078Z,14.50
2023-09-29T21:21:49.078Z,14.30
2023-09-29T21:24:53.464Z,14.20
2023-09-29T21:27:55.567Z,14.10
2023-09-29T21:30:57.584Z,13.90
2023-09-29T21:33:59.950Z,14.00
2023-09-29T21:37:02.196Z,14.00
2023-09-29T21:40:04.866Z,13.80
2023-09-29T21:43:08.301Z,13.80
2023-09-29T21:46:10.185Z,13.80
2023-09-29T21:49:12.722Z,13.60
2023-09-29T21:52:14.886Z,13.50
2023-09-29T21:55:17.446Z,13.50
2023-09-29T21:58:19.427Z,13.50
2023-09-29T22:01:21.262Z,13.50
2023-09-29T22:04:23.213Z,13.50
2023-09-29T22:07:25.356Z,13.40
2023-09-29T22:10:27.269Z,13.20
2023-09-29T22:13:29.744Z,13.30
2023-09-29T22:16:31.820Z,13.20
2023-09-29T22:19:33.813Z,13.20
2023-09-29T22:22:36.324Z,13.10
2023-09-29T22:25:38.554Z,13.10
2023-09-29T22:28:41.330Z,13.00
2023-09-29T22:31:43.537Z,13.00
2023-09-29T22:34:45.413Z,12.90
2023-09-29T22:37:47.775Z,13.00
2023-09-29T22:40:49.823Z,12.90
2023-09-29T22:43:52.758Z,13.00
2023-09-29T22:46:54.743Z,13.00
2023-09-29T22:49:56.882Z,12.90
2023-09-29T22:52:58.677Z,12.90
2023-09-29T22:56:00.805Z,12.90
2023-09-29T22:59:02.848Z,12.80
2023-09-29T23:02:04.796Z,12.70
2023-09-29T23:05:08.228Z,12.80
2023-09-29T23:08:11.740Z,12.80
2023-09-29T23:11:13.975Z,12.70
2023-09-29T23:14:15.913Z,12.90
2023-09-29T23:17:19.664Z,12.90
2023-09-29T23:20:21.981Z,12.80
2023-09-29T23:23:23.804Z,12.80
2023-09-29T23:26:25.972Z,12.70
2023-09-29T23:29:28.022Z,12.70
2023-09-29T23:32:31.886Z,12.70
2023-09-29T23:35:36.862Z,12.80
2023-09-29T23:38:38.726Z,12.80
2023-09-29T23:41:45.089Z,12.60
2023-09-29T23:44:47.201Z,12.60
2023-09-29T23:47:51.472Z,12.60
2023-09-29T23:50:53.793Z,12.70
2023-09-29T23:53:56.109Z,12.70
2023-09-29T23:56:58.082Z,12.60
